createdAt,value
2019-01-18T00:02:03.199Z,13.13
2019-01-18T00:04:31.500Z,13.27
2019-01-18T00:06:59.794Z,12.70
2019-01-18T00:09:28.153Z,12.57
2019-01-18T00:11:56.708Z,12.67
2019-01-18T00:14:25.101Z,12.60
2019-01-18T00:16:53.440Z,13.10
2019-01-18T00:19:21.703Z,12.17
2019-01-18T00:21:50.454Z,13.47
2019-01-18T00:24:18.894Z,13.07
2019-01-18T00:26:47.165Z,12.40
2019-01-18T00:29:15.485Z,13.70
2019-01-18T00:31:44.422Z,12.43
2019-01-18T00:34:12.780Z,12.63
2019-01-18T00:36:41.069Z,14.00
2019-01-18T00:39:09.337Z,12.47
2019-01-18T00:41:37.710Z,13.40
2019-01-18T00:44:05.983Z,12.47
2019-01-18T00:46:34.476Z,10.87
2019-01-18T00:49:02.893Z,11.03
2019-01-18T00:51:31.641Z,10.97
2019-01-18T00:53:59.980Z,11.77
2019-01-18T00:56:28.628Z,12.60
2019-01-18T00:58:56.913Z,11.70
2019-01-18T01:01:25.224Z,11.90
2019-01-18T01:03:53.495Z,11.67
2019-01-18T01:06:21.760Z,12.00
2019-01-18T01:08:50.069Z,11.93
2019-01-18T01:11:18.377Z,11.77
2019-01-18T01:13:46.693Z,11.77
2019-01-18T01:16:15.037Z,12.10
2019-01-18T01:18:43.326Z,12.60
2019-01-18T01:21:11.665Z,12.90
2019-01-18T01:23:40.420Z,12.93
2019-01-18T01:26:08.805Z,13.77
2019-01-18T01:28:37.100Z,13.53
2019-01-18T01:31:05.542Z,16.03
2019-01-18T01:33:33.939Z,14.43
2019-01-18T01:36:02.285Z,13.97
2019-01-18T01:38:30.648Z,14.97
2019-01-18T01:40:58.918Z,14.33
2019-01-18T01:43:27.218Z,16.37
2019-01-18T01:45:55.545Z,15.27
2019-01-18T01:48:23.832Z,15.37
2019-01-18T01:50:52.110Z,15.20
2019-01-18T01:53:20.401Z,14.97
2019-01-18T01:55:48.743Z,14.13
2019-01-18T01:58:17.338Z,14.20
2019-01-18T02:00:45.992Z,16.07
2019-01-18T02:03:14.258Z,14.87
2019-01-18T02:05:42.549Z,14.50
2019-01-18T02:08:10.814Z,15.93
2019-01-18T02:10:39.116Z,15.63
2019-01-18T02:13:07.402Z,15.73
2019-01-18T02:15:35.769Z,14.87
2019-01-18T02:18:04.146Z,16.20
2019-01-18T02:20:32.429Z,14.77
2019-01-18T02:23:00.689Z,14.90
2019-01-18T02:25:28.983Z,15.17
2019-01-18T02:27:57.246Z,15.03
2019-01-18T02:30:26.310Z,15.47
2019-01-18T02:32:54.660Z,15.07
2019-01-18T02:35:23.128Z,14.83
2019-01-18T02:37:51.541Z,14.70
2019-01-18T02:40:19.828Z,15.63
2019-01-18T02:42:48.214Z,15.77
2019-01-18T02:45:18.078Z,17.00
2019-01-18T02:47:46.478Z,16.17
2019-01-18T02:50:14.956Z,15.73
2019-01-18T02:52:43.239Z,16.53
2019-01-18T02:55:11.700Z,16.30
2019-01-18T02:57:39.990Z,16.37
2019-01-18T03:00:09.898Z,18.17
2019-01-18T03:02:38.324Z,18.17
2019-01-18T03:05:07.558Z,16.17
2019-01-18T03:07:35.854Z,17.83
2019-01-18T03:10:08.753Z,17.67
2019-01-18T03:12:37.034Z,17.60
2019-01-18T03:15:05.873Z,17.07
2019-01-18T03:17:34.237Z,17.03
2019-01-18T03:20:03.500Z,17.37
2019-01-18T03:22:32.156Z,18.23
2019-01-18T03:25:00.439Z,18.20
2019-01-18T03:27:28.718Z,17.33
2019-01-18T03:29:56.985Z,17.73
2019-01-18T03:32:25.289Z,16.63
2019-01-18T03:34:53.626Z,17.40
2019-01-18T03:37:21.912Z,16.93
2019-01-18T03:39:50.211Z,17.57
2019-01-18T03:42:18.478Z,16.70
2019-01-18T03:44:46.769Z,17.63
2019-01-18T03:47:15.034Z,17.10
2019-01-18T03:49:43.328Z,17.27
2019-01-18T03:52:11.666Z,18.23
2019-01-18T03:54:39.955Z,18.07
2019-01-18T03:57:08.229Z,17.33
2019-01-18T03:59:36.527Z,18.17
2019-01-18T04:02:05.199Z,18.23
2019-01-18T04:04:37.101Z,18.80
2019-01-18T04:07:05.357Z,18.20
2019-01-18T04:09:33.650Z,19.27
2019-01-18T04:12:01.989Z,18.93
2019-01-18T04:14:30.746Z,18.60
2019-01-18T04:16:59.094Z,19.07
2019-01-18T04:19:28.272Z,20.27
2019-01-18T04:21:56.541Z,19.80
2019-01-18T04:24:24.846Z,20.57
2019-01-18T04:26:53.110Z,21.60
2019-01-18T04:29:21.385Z,20.93
2019-01-18T04:31:50.108Z,18.80
2019-01-18T04:34:18.453Z,19.83
2019-01-18T04:36:46.809Z,22.63
2019-01-18T04:39:15.081Z,21.97
2019-01-18T04:41:43.566Z,21.70
2019-01-18T04:44:11.861Z,19.00
2019-01-18T04:46:40.190Z,20.03
2019-01-18T04:49:08.494Z,19.07
2019-01-18T04:51:36.934Z,18.07
2019-01-18T04:54:05.212Z,19.23
2019-01-18T04:56:33.499Z,19.20
2019-01-18T04:59:01.897Z,18.37
2019-01-18T05:01:30.193Z,17.43
2019-01-18T05:03:58.538Z,19.13
2019-01-18T05:06:26.905Z,19.70
2019-01-18T05:08:55.177Z,21.43
2019-01-18T05:11:23.480Z,20.70
2019-01-18T05:13:51.767Z,22.27
2019-01-18T05:16:20.051Z,21.80
2019-01-18T05:18:48.317Z,22.67
2019-01-18T05:21:16.674Z,22.03
2019-01-18T05:23:44.946Z,22.60
2019-01-18T05:26:13.211Z,22.17
2019-01-18T05:28:47.221Z,24.13
2019-01-18T05:31:15.729Z,21.87
2019-01-18T05:33:44.130Z,24.17
2019-01-18T05:36:12.394Z,20.80
2019-01-18T05:38:41.599Z,20.63
2019-01-18T05:41:09.976Z,23.77
2019-01-18T05:43:38.262Z,23.83
2019-01-18T05:46:06.526Z,21.67
2019-01-18T05:48:34.830Z,23.80
2019-01-18T05:51:03.155Z,22.07
2019-01-18T05:53:31.454Z,19.97
2019-01-18T05:56:00.099Z,21.93
2019-01-18T05:58:28.490Z,19.40
2019-01-18T06:00:56.963Z,22.80
2019-01-18T06:03:25.505Z,20.90
2019-01-18T06:05:53.767Z,22.70
2019-01-18T06:08:22.040Z,24.73
2019-01-18T06:10:50.325Z,21.60
2019-01-18T06:13:18.618Z,22.10
2019-01-18T06:15:46.882Z,20.47
2019-01-18T06:18:15.145Z,22.77
2019-01-18T06:20:43.448Z,22.17
2019-01-18T06:23:11.856Z,22.70
2019-01-18T06:25:41.430Z,22.57
2019-01-18T06:28:09.707Z,22.17
2019-01-18T06:30:38.139Z,23.47
2019-01-18T06:33:06.395Z,24.40
2019-01-18T06:35:35.073Z,20.77
2019-01-18T06:38:03.500Z,24.90
2019-01-18T06:40:32.037Z,22.83
2019-01-18T06:43:00.554Z,23.83
2019-01-18T06:45:29.627Z,24.37
2019-01-18T06:47:57.963Z,22.93
2019-01-18T06:50:26.261Z,23.37
2019-01-18T06:52:54.608Z,23.13
2019-01-18T06:55:22.917Z,21.20
2019-01-18T06:57:51.184Z,27.03
2019-01-18T07:00:21.030Z,28.97
2019-01-18T07:02:49.464Z,24.20
2019-01-18T07:05:17.850Z,23.97
2019-01-18T07:07:46.295Z,22.83
2019-01-18T07:10:20.826Z,23.27
2019-01-18T07:12:48.721Z,24.73
2019-01-18T07:15:17.106Z,26.27
2019-01-18T07:17:45.557Z,25.77
2019-01-18T07:20:15.415Z,24.83
2019-01-18T07:22:43.773Z,23.63
2019-01-18T07:25:14.420Z,22.97
2019-01-18T07:27:42.811Z,22.53
2019-01-18T07:30:12.626Z,20.67
2019-01-18T07:32:40.973Z,21.10
2019-01-18T07:35:09.243Z,22.00
2019-01-18T07:37:37.630Z,22.33
2019-01-18T07:40:07.330Z,20.93
2019-01-18T07:42:35.620Z,21.90
2019-01-18T07:45:08.214Z,21.97
2019-01-18T07:47:36.576Z,24.53
2019-01-18T07:50:06.525Z,22.07
2019-01-18T07:52:34.902Z,22.30
2019-01-18T07:55:08.948Z,23.87
2019-01-18T07:57:37.381Z,24.90
2019-01-18T08:00:10.078Z,36.47
2019-01-18T08:02:38.428Z,31.70
2019-01-18T08:05:07.661Z,24.87
2019-01-18T08:07:36.030Z,30.73
2019-01-18T08:10:23.642Z,30.60
2019-01-18T08:13:11.278Z,32.40
2019-01-18T08:15:58.876Z,35.87
2019-01-18T08:18:46.514Z,29.50
2019-01-18T08:21:34.126Z,27.23
2019-01-18T08:24:21.769Z,23.83
2019-01-18T08:27:09.420Z,24.73
2019-01-18T08:29:57.061Z,27.80
2019-01-18T08:32:44.670Z,28.67
2019-01-18T08:35:32.309Z,28.20
2019-01-18T08:38:39.797Z,27.23
2019-01-18T08:41:28.150Z,27.33
2019-01-18T08:44:15.813Z,26.50
2019-01-18T08:47:03.454Z,27.00
2019-01-18T08:49:51.153Z,28.83
2019-01-18T08:52:58.703Z,28.93
2019-01-18T08:58:16.695Z,29.10
2019-01-18T09:00:55.268Z,28.10
2019-01-18T09:06:46.782Z,27.83
2019-01-18T09:25:44.241Z,27.37
2019-01-18T09:31:35.289Z,26.53
2019-01-18T09:42:46.443Z,27.50
2019-01-18T09:51:18.489Z,25.60
2019-01-18T09:56:59.945Z,26.30
2019-01-18T09:59:28.218Z,26.77
2019-01-18T10:01:56.531Z,25.33
2019-01-18T10:04:24.983Z,26.87
2019-01-18T10:06:53.531Z,26.93
2019-01-18T10:09:21.878Z,28.43
2019-01-18T10:11:50.173Z,29.97
2019-01-18T10:14:18.431Z,28.73
2019-01-18T10:16:46.759Z,30.70
2019-01-18T10:19:15.075Z,28.47
2019-01-18T10:21:43.431Z,27.77
2019-01-18T10:24:11.729Z,28.47
2019-01-18T10:26:40.009Z,26.67
2019-01-18T10:29:08.399Z,29.17
2019-01-18T10:31:36.749Z,27.83
2019-01-18T10:34:05.045Z,31.47
2019-01-18T10:36:34.429Z,29.47
2019-01-18T10:39:04.326Z,28.30
2019-01-18T10:41:32.594Z,29.97
2019-01-18T10:44:05.944Z,29.97
2019-01-18T10:46:30.941Z,29.80
2019-01-18T10:48:59.245Z,29.57
2019-01-18T10:51:27.570Z,29.23
2019-01-18T10:53:55.870Z,29.00
2019-01-18T10:56:24.306Z,30.33
2019-01-18T10:58:52.586Z,30.03
2019-01-18T11:01:20.859Z,30.03
2019-01-18T11:03:49.195Z,30.17
2019-01-18T11:06:17.535Z,30.13
2019-01-18T11:08:45.862Z,34.00
2019-01-18T11:11:14.138Z,31.33
2019-01-18T11:13:42.433Z,35.47
2019-01-18T11:16:10.713Z,37.87
2019-01-18T11:18:39.031Z,38.47
2019-01-18T11:21:07.401Z,38.53
2019-01-18T11:23:35.792Z,37.83
2019-01-18T11:26:04.103Z,40.43
2019-01-18T11:28:32.394Z,35.93
2019-01-18T11:31:00.747Z,35.17
2019-01-18T11:33:29.120Z,37.27
2019-01-18T11:35:57.499Z,34.60
2019-01-18T11:38:25.762Z,31.33
2019-01-18T11:40:54.088Z,28.33
2019-01-18T11:43:22.372Z,28.90
2019-01-18T11:45:50.661Z,27.53
2019-01-18T11:48:18.979Z,26.53
2019-01-18T11:50:47.278Z,24.93
2019-01-18T11:53:15.551Z,25.43
2019-01-18T11:55:43.963Z,23.30
2019-01-18T11:58:12.290Z,23.90
2019-01-18T12:00:40.621Z,23.53
2019-01-18T12:03:08.915Z,25.50
2019-01-18T12:05:37.346Z,26.93
2019-01-18T12:08:05.770Z,29.13
2019-01-18T12:10:34.144Z,25.43
2019-01-18T12:13:02.604Z,24.57
2019-01-18T12:15:30.959Z,24.77
2019-01-18T12:17:59.238Z,24.53
2019-01-18T12:20:28.629Z,24.80
2019-01-18T12:22:57.067Z,25.60
2019-01-18T12:25:25.437Z,24.10
2019-01-18T12:27:53.765Z,23.70
2019-01-18T12:30:23.494Z,23.40
2019-01-18T12:32:51.841Z,23.57
2019-01-18T12:35:20.109Z,22.80
2019-01-18T12:37:48.394Z,22.83
2019-01-18T12:40:18.725Z,22.67
2019-01-18T12:42:47.038Z,22.00
2019-01-18T12:45:16.482Z,23.97
2019-01-18T12:47:44.846Z,20.17
2019-01-18T12:50:20.621Z,19.27
2019-01-18T12:52:49.012Z,20.23
2019-01-18T12:55:17.278Z,21.70
2019-01-18T12:57:45.637Z,22.00
2019-01-18T13:00:15.387Z,20.63
2019-01-18T13:02:44.049Z,21.67
2019-01-18T13:05:14.100Z,21.77
2019-01-18T13:07:42.479Z,24.33
2019-01-18T13:10:12.256Z,21.13
2019-01-18T13:12:40.862Z,20.07
2019-01-18T13:15:10.677Z,21.20
2019-01-18T13:17:38.970Z,21.40
2019-01-18T13:20:08.844Z,20.73
2019-01-18T13:22:37.197Z,21.23
2019-01-18T13:25:07.005Z,19.47
2019-01-18T13:27:35.374Z,20.90
2019-01-18T13:30:05.251Z,19.57
2019-01-18T13:32:33.633Z,20.17
2019-01-18T13:35:02.015Z,19.33
2019-01-18T13:37:30.392Z,18.77
2019-01-18T13:39:58.702Z,20.43
2019-01-18T13:42:26.994Z,19.90
2019-01-18T13:44:55.283Z,18.60
2019-01-18T13:47:23.972Z,17.77
2019-01-18T13:49:52.355Z,19.60
2019-01-18T13:52:20.641Z,18.40
2019-01-18T13:54:49.007Z,20.20
2019-01-18T13:57:17.275Z,18.73
2019-01-18T13:59:45.674Z,19.93
2019-01-18T14:02:14.078Z,20.23
2019-01-18T14:04:42.404Z,19.57
2019-01-18T14:07:10.802Z,22.20
2019-01-18T14:09:39.167Z,21.03
2019-01-18T14:12:08.221Z,18.83
2019-01-18T14:14:36.621Z,18.60
2019-01-18T14:17:04.876Z,20.90
2019-01-18T14:19:33.271Z,19.40
2019-01-18T14:22:01.600Z,19.57
2019-01-18T14:24:29.909Z,20.50
2019-01-18T14:26:58.270Z,21.83
2019-01-18T14:29:26.632Z,20.07
2019-01-18T14:31:54.998Z,21.33
2019-01-18T14:34:23.324Z,20.57
2019-01-18T14:36:51.682Z,22.40
2019-01-18T14:39:19.965Z,22.07
2019-01-18T14:41:48.274Z,20.23
2019-01-18T14:44:16.646Z,21.80
2019-01-18T14:46:44.968Z,26.60
2019-01-18T14:49:13.294Z,21.27
2019-01-18T14:51:41.673Z,23.57
2019-01-18T14:54:09.994Z,23.97
2019-01-18T14:56:38.400Z,34.80
2019-01-18T14:59:06.759Z,23.37
2019-01-18T15:01:35.073Z,26.80
2019-01-18T15:04:03.430Z,21.80
2019-01-18T15:06:32.763Z,22.00
2019-01-18T15:09:01.101Z,21.80
2019-01-18T15:11:29.584Z,22.77
2019-01-18T15:13:57.881Z,20.43
2019-01-18T15:16:26.159Z,33.77
2019-01-18T15:18:54.471Z,25.47
2019-01-18T15:21:22.923Z,39.50
2019-01-18T15:23:51.225Z,26.53
2019-01-18T15:26:19.500Z,43.00
2019-01-18T15:28:47.804Z,50.60
2019-01-18T15:31:16.079Z,47.00
2019-01-18T15:33:44.397Z,27.03
2019-01-18T15:36:12.758Z,29.83
2019-01-18T15:38:41.053Z,23.93
2019-01-18T15:41:09.400Z,29.40
2019-01-18T15:43:37.802Z,21.23
2019-01-18T15:46:06.133Z,20.93
2019-01-18T15:48:34.448Z,21.00
2019-01-18T15:51:02.722Z,22.77
2019-01-18T15:53:31.201Z,20.37
2019-01-18T15:55:59.474Z,20.80
2019-01-18T15:58:27.802Z,26.30
2019-01-18T16:00:56.106Z,19.63
2019-01-18T16:03:24.572Z,23.07
2019-01-18T16:05:52.849Z,85.03
2019-01-18T16:08:21.186Z,84.83
2019-01-18T16:10:49.503Z,45.83
2019-01-18T16:13:17.918Z,46.33
2019-01-18T16:15:47.809Z,60.67
2019-01-18T16:18:17.670Z,39.77
2019-01-18T16:20:45.973Z,26.73
2019-01-18T16:23:14.246Z,50.27
2019-01-18T16:25:42.549Z,37.20
2019-01-18T16:28:10.910Z,80.63
2019-01-18T16:30:39.229Z,27.77
2019-01-18T16:33:07.566Z,80.20
2019-01-18T16:35:35.948Z,81.63
2019-01-18T16:38:05.486Z,149.37
2019-01-18T16:40:33.872Z,44.00
2019-01-18T16:43:15.866Z,53.93
2019-01-18T16:45:44.259Z,71.00
2019-01-18T16:48:12.596Z,35.17
2019-01-18T16:50:40.971Z,34.27
2019-01-18T16:53:09.309Z,35.27
2019-01-18T16:55:37.618Z,38.77
2019-01-18T16:58:06.074Z,34.47
2019-01-18T17:00:35.913Z,31.30
2019-01-18T17:03:04.278Z,31.10
2019-01-18T17:05:32.746Z,31.50
2019-01-18T17:08:01.151Z,32.03
2019-01-18T17:10:29.421Z,31.37
2019-01-18T17:12:57.744Z,38.33
2019-01-18T17:15:26.017Z,30.50
2019-01-18T17:17:54.432Z,29.00
2019-01-18T17:20:24.243Z,28.57
2019-01-18T17:22:52.542Z,31.87
2019-01-18T17:25:20.910Z,38.07
2019-01-18T17:27:49.478Z,38.27
2019-01-18T17:30:18.958Z,33.60
2019-01-18T17:32:47.429Z,36.87
2019-01-18T17:35:18.273Z,34.63
2019-01-18T17:37:51.358Z,32.20
2019-01-18T17:40:21.168Z,33.37
2019-01-18T17:43:02.933Z,31.17
2019-01-18T17:45:32.807Z,30.90
2019-01-18T17:48:02.688Z,30.00
2019-01-18T17:50:35.484Z,34.50
2019-01-18T17:53:05.388Z,38.60
2019-01-18T17:55:50.195Z,33.13
2019-01-18T17:58:36.665Z,31.33
2019-01-18T18:01:12.231Z,32.43
2019-01-18T18:03:54.263Z,29.27
2019-01-18T18:06:27.057Z,28.10
2019-01-18T18:09:02.739Z,30.03
2019-01-18T18:11:32.593Z,29.07
2019-01-18T18:14:08.419Z,29.90
2019-01-18T18:16:38.409Z,29.90
2019-01-18T18:19:17.214Z,28.83
2019-01-18T18:21:59.196Z,28.43
2019-01-18T18:24:32.028Z,28.90
2019-01-18T18:27:07.808Z,27.77
2019-01-18T18:29:37.622Z,28.37
2019-01-18T18:32:19.654Z,27.60
2019-01-18T18:34:49.491Z,28.23
2019-01-18T18:37:19.326Z,28.37
2019-01-18T18:42:49.918Z,27.27
2019-01-18T18:45:31.887Z,29.60
2019-01-18T18:48:07.397Z,33.20
2019-01-18T18:50:37.259Z,32.20
2019-01-18T18:53:13.036Z,27.90
2019-01-18T18:55:55.466Z,28.57
2019-01-18T18:58:29.513Z,31.87
2019-01-18T19:00:59.441Z,29.23
2019-01-18T19:03:45.988Z,30.53
2019-01-18T19:06:15.830Z,29.83
2019-01-18T19:08:51.842Z,30.33
2019-01-18T19:11:39.749Z,29.03
2019-01-18T19:14:12.412Z,27.67
2019-01-18T19:16:50.944Z,28.00
2019-01-18T19:19:26.619Z,28.33
2019-01-18T19:22:02.055Z,30.17
2019-01-18T19:24:31.887Z,30.63
2019-01-18T19:27:01.730Z,31.73
2019-01-18T19:29:34.339Z,32.20
2019-01-18T19:32:04.207Z,31.63
2019-01-18T19:34:40.266Z,40.87
2019-01-18T19:37:26.748Z,47.67
2019-01-18T19:40:11.673Z,29.87
2019-01-18T19:42:41.576Z,29.43
2019-01-18T19:45:11.479Z,28.60
2019-01-18T19:47:43.983Z,29.97
2019-01-18T19:50:25.697Z,30.30
2019-01-18T19:52:55.608Z,26.93
2019-01-18T19:55:34.392Z,29.27
2019-01-18T19:58:19.278Z,26.90
2019-01-18T20:00:52.021Z,26.27
2019-01-18T20:03:24.541Z,26.33
2019-01-18T20:06:12.491Z,26.53
2019-01-18T20:08:42.691Z,25.40
2019-01-18T20:11:18.289Z,26.20
2019-01-18T20:13:50.820Z,26.80
2019-01-18T20:16:20.649Z,27.30
2019-01-18T20:18:50.510Z,26.10
2019-01-18T20:21:26.360Z,27.60
2019-01-18T20:23:58.830Z,27.37
2019-01-18T20:26:37.701Z,25.97
2019-01-18T20:29:12.618Z,25.03
2019-01-18T20:31:48.202Z,25.00
2019-01-18T20:34:21.002Z,24.23
2019-01-18T20:37:02.885Z,25.07
2019-01-18T20:39:35.697Z,26.17
2019-01-18T20:42:23.645Z,25.87
2019-01-18T20:45:02.747Z,25.37
2019-01-18T20:47:44.351Z,26.23
2019-01-18T20:50:27.771Z,24.20
2019-01-18T20:52:57.632Z,25.53
2019-01-18T20:55:39.789Z,27.57
2019-01-18T20:58:09.670Z,26.27
2019-01-18T21:00:42.504Z,28.07
2019-01-18T21:03:12.439Z,25.30
2019-01-18T21:05:51.565Z,28.03
2019-01-18T21:08:37.954Z,28.10
2019-01-18T21:11:07.783Z,28.80
2019-01-18T21:13:37.639Z,28.93
2019-01-18T21:16:10.426Z,30.40
2019-01-18T21:18:58.438Z,30.83
2019-01-18T21:21:43.311Z,29.20
2019-01-18T21:24:31.301Z,25.83
2019-01-18T21:27:01.237Z,26.33
2019-01-18T21:29:33.899Z,25.73
2019-01-18T21:32:03.827Z,27.13
2019-01-18T21:34:36.399Z,25.77
2019-01-18T21:37:24.427Z,25.97
2019-01-18T21:39:54.313Z,25.27
2019-01-18T21:42:24.167Z,24.07
2019-01-18T21:45:10.741Z,25.13
2019-01-18T21:47:43.300Z,24.53
2019-01-18T21:50:15.988Z,26.63
2019-01-18T21:53:04.944Z,25.57
2019-01-18T21:55:40.818Z,23.80
2019-01-18T21:58:19.662Z,25.27
2019-01-18T22:01:06.168Z,25.03
2019-01-18T22:03:38.998Z,24.23
2019-01-18T22:06:11.910Z,24.70
2019-01-18T22:08:50.748Z,25.20
2019-01-18T22:11:23.660Z,24.87
2019-01-18T22:13:56.440Z,26.67
2019-01-18T22:16:42.702Z,24.97
2019-01-18T22:19:18.332Z,26.67
2019-01-18T22:21:50.854Z,26.47
2019-01-18T22:24:36.000Z,27.07
2019-01-18T22:27:11.504Z,26.00
2019-01-18T22:29:50.384Z,26.77
2019-01-18T22:32:20.190Z,25.20
2019-01-18T22:34:50.033Z,24.83
2019-01-18T22:37:23.908Z,24.40
2019-01-18T22:39:59.821Z,25.43
2019-01-18T22:42:44.877Z,25.60
2019-01-18T22:45:17.646Z,27.13
2019-01-18T22:48:03.976Z,25.77
2019-01-18T22:50:46.102Z,24.17
2019-01-18T22:53:21.928Z,27.03
2019-01-18T22:55:54.905Z,23.00
2019-01-18T22:58:30.926Z,24.87
2019-01-18T23:01:00.773Z,23.03
2019-01-18T23:03:42.824Z,24.07
2019-01-18T23:06:18.871Z,22.47
2019-01-18T23:09:05.289Z,22.93
2019-01-18T23:11:37.878Z,21.17
2019-01-18T23:14:07.721Z,22.43
2019-01-18T23:16:40.574Z,21.60
2019-01-18T23:19:10.392Z,20.40
2019-01-18T23:21:46.405Z,23.20
2019-01-18T23:24:22.009Z,22.63
2019-01-18T23:27:08.590Z,22.03
2019-01-18T23:29:38.417Z,21.03
2019-01-18T23:32:14.042Z,21.70
2019-01-18T23:34:43.896Z,22.43
2019-01-18T23:37:13.737Z,20.27
2019-01-18T23:39:43.558Z,20.77
2019-01-18T23:42:23.246Z,23.03
2019-01-18T23:45:04.949Z,22.13
2019-01-18T23:47:49.709Z,20.67
2019-01-18T23:50:28.252Z,21.93
2019-01-18T23:53:09.913Z,19.93
2019-01-18T23:55:42.644Z,22.10
2019-01-18T23:58:12.481Z,21.93
